Time;durP1;ratioP1;P1;durP2;ratioP2;P2;SDS_P1;SDS_P2;PMS_P1;PMS_P2;Temp;Humidity;BMP_temperature;BMP_pressure;BME280_temperature;BME280_humidity;BME280_pressure;Samples;Min_cycle;Max_cycle;Signal;HPM_P1;HPM_P2
2024/04/02 00:01:18;;;;;;;1.53;1.20;;;21.90;85.40;;;;;;5052183;28;20486;-76
2024/04/02 00:03:44;;;;;;;1.83;1.50;;;21.90;85.70;;;;;;5051954;28;20470;-73
2024/04/02 00:06:11;;;;;;;1.57;1.30;;;21.80;85.60;;;;;;5052473;28;20452;-74
2024/04/02 00:08:37;;;;;;;1.47;1.20;;;21.80;85.60;;;;;;5049718;28;25861;-74
2024/04/02 00:11:05;;;;;;;1.40;1.30;;;21.80;85.70;;;;;;5054113;28;20478;-73
2024/04/02 00:13:31;;;;;;;1.20;1.10;;;21.80;85.70;;;;;;5054607;28;20204;-74
2024/04/02 00:15:59;;;;;;;1.70;1.40;;;21.80;85.90;;;;;;5057304;28;20577;-74
2024/04/02 00:18:25;;;;;;;1.80;1.27;;;21.80;86.00;;;;;;5056146;28;20455;-74
2024/04/02 00:20:52;;;;;;;1.50;1.30;;;21.80;86.00;;;;;;5053168;28;20552;-75
2024/04/02 00:23:18;;;;;;;2.10;1.37;;;21.70;86.00;;;;;;5051910;28;20202;-74
2024/04/02 00:25:46;;;;;;;1.30;1.20;;;21.70;86.20;;;;;;5053066;28;26384;-75
2024/04/02 00:28:12;;;;;;;2.00;1.90;;;21.70;86.30;;;;;;5060281;28;20201;-74
2024/04/02 00:30:40;;;;;;;1.40;1.30;;;21.70;86.50;;;;;;5051332;28;20452;-75
2024/04/02 00:33:07;;;;;;;1.70;1.30;;;21.70;86.50;;;;;;5051404;28;21291;-74
2024/04/02 00:35:33;;;;;;;1.77;1.37;;;21.60;86.60;;;;;;5052436;28;21354;-73
2024/04/02 00:37:59;;;;;;;1.30;1.20;;;21.60;86.70;;;;;;5050917;28;20468;-75
2024/04/02 00:40:26;;;;;;;2.23;1.27;;;21.60;86.80;;;;;;5050084;28;20508;-73
2024/04/02 00:42:52;;;;;;;1.40;1.10;;;21.60;87.00;;;;;;5052068;28;20224;-75
2024/04/02 00:45:19;;;;;;;1.47;1.33;;;21.50;87.00;;;;;;5053222;28;20447;-73
2024/04/02 00:47:45;;;;;;;2.10;1.03;;;21.50;87.10;;;;;;5050973;28;25744;-75
2024/04/02 00:50:14;;;;;;;1.70;1.30;;;21.50;87.20;;;;;;5050325;28;20455;-74
2024/04/02 00:52:41;;;;;;;1.60;1.30;;;21.50;87.30;;;;;;5052293;28;20817;-73
2024/04/02 00:55:08;;;;;;;2.30;1.30;;;21.50;87.40;;;;;;5050496;28;20582;-74
2024/04/02 00:57:34;;;;;;;1.67;1.20;;;21.40;87.50;;;;;;5052539;28;21020;-75
2024/04/02 01:00:01;;;;;;;1.13;1.03;;;21.40;87.60;;;;;;5052004;28;20578;-74
2024/04/02 01:02:27;;;;;;;4.45;1.30;;;21.40;87.70;;;;;;5052539;28;21005;-74
2024/04/02 01:04:54;;;;;;;1.20;1.10;;;21.40;87.80;;;;;;5050369;28;20205;-72
2024/04/02 01:07:21;;;;;;;1.73;1.53;;;21.40;87.90;;;;;;5051282;28;20267;-74
2024/04/02 01:09:48;;;;;;;1.58;1.25;;;21.30;88.00;;;;;;5059539;28;21251;-72
2024/04/02 01:12:14;;;;;;;1.55;1.30;;;21.30;88.10;;;;;;5056698;28;20197;-75
2024/04/02 01:14:40;;;;;;;1.63;1.10;;;21.30;88.30;;;;;;5055263;28;20284;-74
2024/04/02 01:17:07;;;;;;;1.50;1.40;;;21.30;88.50;;;;;;5055382;28;21603;-74
2024/04/02 01:19:34;;;;;;;1.30;1.20;;;21.30;88.60;;;;;;5054765;28;20497;-74
2024/04/02 01:22:00;;;;;;;1.50;1.20;;;21.30;88.60;;;;;;5063146;28;20902;-74
2024/04/02 01:24:28;;;;;;;1.10;1.00;;;21.20;88.70;;;;;;5055034;28;20197;-74
2024/04/02 01:26:55;;;;;;;1.42;1.10;;;21.20;88.70;;;;;;5056428;28;20204;-76
2024/04/02 01:29:22;;;;;;;1.70;1.17;;;21.20;88.70;;;;;;5056517;28;20213;-76
2024/04/02 01:31:51;;;;;;;2.40;1.30;;;21.20;88.60;;;;;;5054856;28;20454;-76
2024/04/02 01:34:18;;;;;;;1.20;1.07;;;21.20;88.40;;;;;;5057441;28;20941;-76
2024/04/02 01:36:43;;;;;;;1.50;1.20;;;21.20;88.30;;;;;;5057171;28;20487;-76
2024/04/02 01:39:10;;;;;;;1.20;1.07;;;21.10;88.50;;;;;;5058017;28;20451;-75
2024/04/02 01:41:36;;;;;;;1.93;1.27;;;21.10;88.60;;;;;;5055259;28;20483;-75
2024/04/02 01:44:05;;;;;;;1.47;1.10;;;21.10;88.60;;;;;;5057907;28;20466;-75
2024/04/02 01:46:31;;;;;;;1.30;1.10;;;21.10;88.80;;;;;;5055424;28;20201;-76
2024/04/02 01:48:57;;;;;;;1.70;1.20;;;21.10;88.90;;;;;;5054676;28;21265;-75
2024/04/02 01:51:25;;;;;;;1.48;1.25;;;21.00;88.70;;;;;;5054921;28;20771;-75
2024/04/02 01:53:52;;;;;;;1.20;1.00;;;21.00;88.90;;;;;;5056307;28;20241;-75
2024/04/02 01:56:18;;;;;;;1.40;1.20;;;21.00;88.80;;;;;;5050508;28;20994;-75
2024/04/02 01:58:44;;;;;;;1.13;1.03;;;21.00;88.90;;;;;;5055136;28;20197;-75
2024/04/02 02:01:11;;;;;;;1.42;1.10;;;21.00;88.90;;;;;;5056476;28;20227;-75
2024/04/02 02:03:38;;;;;;;1.20;1.00;;;20.90;88.90;;;;;;5053433;28;20202;-74
2024/04/02 02:06:04;;;;;;;1.80;1.13;;;20.90;89.00;;;;;;5055443;28;20205;-76
2024/04/02 02:08:31;;;;;;;1.50;1.10;;;20.90;89.10;;;;;;5054294;28;20216;-75
2024/04/02 02:11:01;;;;;;;1.65;1.35;;;20.90;89.20;;;;;;5057679;28;21259;-75
2024/04/02 02:13:28;;;;;;;1.35;1.20;;;20.90;89.30;;;;;;5055256;28;20229;-75
2024/04/02 02:15:57;;;;;;;1.45;1.20;;;20.80;89.30;;;;;;5056762;28;20793;-74
2024/04/02 02:18:26;;;;;;;1.05;0.85;;;20.80;89.40;;;;;;5054430;28;20199;-74
2024/04/02 02:20:52;;;;;;;1.40;1.20;;;20.80;89.50;;;;;;5054364;28;20809;-75
2024/04/02 02:23:19;;;;;;;1.20;1.00;;;20.70;89.50;;;;;;5055199;28;20234;-75
2024/04/02 02:25:44;;;;;;;1.70;1.45;;;20.70;89.60;;;;;;5051212;28;20291;-75
2024/04/02 02:28:11;;;;;;;1.43;1.20;;;20.70;89.80;;;;;;5054096;28;20194;-74
2024/04/02 02:30:37;;;;;;;1.50;1.27;;;20.70;89.90;;;;;;5056027;28;20198;-74
2024/04/02 02:33:04;;;;;;;1.50;1.17;;;20.60;89.80;;;;;;5055427;28;20921;-74
2024/04/02 02:35:31;;;;;;;1.58;1.30;;;20.60;89.90;;;;;;5055721;28;20350;-75
2024/04/02 02:37:58;;;;;;;1.30;1.17;;;20.60;90.00;;;;;;5062910;28;21020;-74
2024/04/02 02:40:23;;;;;;;1.38;1.27;;;20.60;90.00;;;;;;5060928;28;20321;-74
2024/04/02 02:42:50;;;;;;;3.57;1.03;;;20.60;90.00;;;;;;5053861;28;20543;-74
2024/04/02 02:45:16;;;;;;;1.40;1.30;;;20.50;90.00;;;;;;5055531;28;20206;-75
2024/04/02 02:47:43;;;;;;;1.15;1.00;;;20.50;90.10;;;;;;5055195;28;20194;-75
2024/04/02 02:50:08;;;;;;;1.35;1.20;;;20.50;90.20;;;;;;5054586;28;21096;-75
2024/04/02 02:52:36;;;;;;;1.30;1.10;;;20.50;90.20;;;;;;5054633;28;20232;-74
2024/04/02 02:55:02;;;;;;;1.40;1.00;;;20.40;90.20;;;;;;5053714;28;20193;-74
2024/04/02 02:57:29;;;;;;;1.30;1.20;;;20.40;90.30;;;;;;5052346;28;20580;-75
2024/04/02 02:59:55;;;;;;;1.70;1.30;;;20.40;90.30;;;;;;5059061;28;20455;-74
2024/04/02 03:02:21;;;;;;;1.30;1.20;;;20.40;90.30;;;;;;5061909;28;20263;-74
2024/04/02 03:04:49;;;;;;;1.30;1.00;;;20.40;90.40;;;;;;5062122;28;21098;-74
2024/04/02 03:07:16;;;;;;;1.40;1.00;;;20.40;90.40;;;;;;5062290;28;20204;-74
2024/04/02 03:09:43;;;;;;;1.10;1.00;;;20.30;90.40;;;;;;5061902;28;20247;-75
2024/04/02 03:12:10;;;;;;;1.10;1.00;;;20.30;90.40;;;;;;5063243;28;20978;-73
2024/04/02 03:14:36;;;;;;;1.70;1.20;;;20.30;90.50;;;;;;5062295;28;21124;-75
2024/04/02 03:17:02;;;;;;;2.23;1.30;;;20.30;90.60;;;;;;5062486;28;20521;-75
2024/04/02 03:19:29;;;;;;;1.50;1.10;;;20.30;90.60;;;;;;5062703;28;20197;-75
2024/04/02 03:21:55;;;;;;;1.00;0.90;;;20.20;90.60;;;;;;5061562;28;20213;-74
2024/04/02 03:24:21;;;;;;;1.15;1.00;;;20.20;90.70;;;;;;5062578;28;20282;-75
2024/04/02 03:26:49;;;;;;;1.10;0.90;;;20.20;90.70;;;;;;5062163;28;20271;-73
2024/04/02 03:29:15;;;;;;;1.50;1.10;;;20.20;90.70;;;;;;5060436;28;21844;-74
2024/04/02 03:31:42;;;;;;;1.77;1.40;;;20.20;90.80;;;;;;5062435;28;20297;-74
2024/04/02 03:34:08;;;;;;;1.50;1.10;;;20.20;90.80;;;;;;5062086;28;20463;-75
2024/04/02 03:36:34;;;;;;;2.07;1.23;;;20.10;90.70;;;;;;5060709;28;21022;-74
2024/04/02 03:39:02;;;;;;;1.40;1.10;;;20.20;90.80;;;;;;5060648;28;21121;-75
2024/04/02 03:41:29;;;;;;;1.30;1.15;;;20.10;90.80;;;;;;5061458;28;20213;-75
2024/04/02 03:43:57;;;;;;;2.10;1.33;;;20.10;90.80;;;;;;5058152;28;20201;-75
2024/04/02 03:46:23;;;;;;;1.38;1.27;;;20.10;90.90;;;;;;5059527;28;20239;-74
2024/04/02 03:48:49;;;;;;;1.13;0.90;;;20.10;90.90;;;;;;5060896;28;20202;-75
2024/04/02 03:51:16;;;;;;;1.40;1.10;;;20.00;90.90;;;;;;5054863;28;20726;-75
2024/04/02 03:53:42;;;;;;;1.20;1.10;;;20.00;91.00;;;;;;5060544;28;21136;-74
2024/04/02 03:56:09;;;;;;;2.57;1.10;;;20.00;91.00;;;;;;5054933;28;20239;-74
2024/04/02 03:58:34;;;;;;;1.35;1.15;;;20.00;91.00;;;;;;5059922;28;20463;-75
2024/04/02 04:01:05;;;;;;;1.57;0.90;;;20.00;91.10;;;;;;5060537;28;20758;-74
2024/04/02 04:03:31;;;;;;;1.30;1.20;;;20.00;91.10;;;;;;5060084;28;20201;-74
2024/04/02 04:05:58;;;;;;;1.50;1.00;;;20.00;91.10;;;;;;5060619;28;20244;-74
2024/04/02 04:08:26;;;;;;;1.33;1.08;;;19.90;91.10;;;;;;5060088;28;20197;-74
2024/04/02 04:10:51;;;;;;;1.42;1.20;;;19.90;91.20;;;;;;5055531;28;20197;-73
2024/04/02 04:13:18;;;;;;;1.27;1.00;;;19.90;91.20;;;;;;5059894;28;20289;-74
2024/04/02 04:15:51;;;;;;;1.23;1.00;;;19.90;91.20;;;;;;5059056;28;20274;-75
2024/04/02 04:18:19;;;;;;;1.00;0.90;;;19.90;91.30;;;;;;5060921;28;20669;-74
2024/04/02 04:20:50;;;;;;;1.00;0.82;;;19.90;91.30;;;;;;5059606;28;20719;-75
2024/04/02 04:23:17;;;;;;;1.27;1.00;;;19.90;91.30;;;;;;5059403;28;20754;-73
2024/04/02 04:25:43;;;;;;;1.02;0.90;;;19.90;91.40;;;;;;5054561;28;20283;-73
2024/04/02 04:28:10;;;;;;;1.87;1.10;;;19.80;91.30;;;;;;5057801;28;20199;-75
2024/04/02 04:30:35;;;;;;;1.10;0.90;;;19.80;91.40;;;;;;5056223;28;20490;-74
2024/04/02 04:33:03;;;;;;;1.63;1.00;;;19.80;91.40;;;;;;5057403;28;20193;-74
2024/04/02 04:35:33;;;;;;;1.23;0.90;;;19.80;91.40;;;;;;5061060;28;20204;-75
2024/04/02 04:38:00;;;;;;;1.15;1.02;;;19.80;91.40;;;;;;5059122;28;20197;-73
2024/04/02 04:40:25;;;;;;;1.27;1.00;;;19.80;91.50;;;;;;5060343;28;21095;-75
2024/04/02 04:42:52;;;;;;;1.30;1.20;;;19.80;91.50;;;;;;5056047;28;20284;-74
2024/04/02 04:45:18;;;;;;;1.15;1.00;;;19.70;91.50;;;;;;5059444;28;20256;-73
2024/04/02 04:47:44;;;;;;;1.40;1.10;;;19.70;91.50;;;;;;5063708;28;20228;-74
2024/04/02 04:50:10;;;;;;;1.20;0.90;;;19.70;91.50;;;;;;5063094;28;20621;-76
2024/04/02 04:52:38;;;;;;;1.30;1.10;;;19.70;91.50;;;;;;5063918;28;20196;-74
2024/04/02 04:55:04;;;;;;;1.52;1.10;;;19.70;91.60;;;;;;5062917;28;21139;-74
2024/04/02 04:57:30;;;;;;;1.03;0.80;;;19.70;91.60;;;;;;5062376;28;20236;-73
2024/04/02 04:59:56;;;;;;;1.60;1.20;;;19.70;91.60;;;;;;5057306;28;20451;-74
2024/04/02 05:02:23;;;;;;;1.33;1.23;;;19.70;91.70;;;;;;5060023;28;20313;-75
2024/04/02 05:04:49;;;;;;;1.20;1.10;;;19.70;91.70;;;;;;5064705;28;20723;-75
2024/04/02 05:07:23;;;;;;;1.50;0.90;;;19.60;91.60;;;;;;5065878;28;20238;-74
2024/04/02 05:09:51;;;;;;;1.33;1.23;;;19.60;91.70;;;;;;5064035;28;20196;-74
2024/04/02 05:12:18;;;;;;;1.17;0.95;;;19.60;91.70;;;;;;5064343;28;20280;-74
2024/04/02 05:14:43;;;;;;;1.08;0.90;;;19.60;91.70;;;;;;5060498;28;20890;-74
2024/04/02 05:17:10;;;;;;;1.37;0.97;;;19.60;91.80;;;;;;5064722;28;20201;-74
2024/04/02 05:19:36;;;;;;;1.20;1.00;;;19.60;91.80;;;;;;5063477;28;20201;-75
2024/04/02 05:22:06;;;;;;;1.47;1.37;;;19.60;91.80;;;;;;5063522;28;20217;-75
2024/04/02 05:24:32;;;;;;;1.10;0.90;;;19.50;91.80;;;;;;5064554;28;20555;-74
2024/04/02 05:27:00;;;;;;;1.53;0.93;;;19.50;91.90;;;;;;5062748;28;20200;-74
2024/04/02 05:29:26;;;;;;;1.33;1.00;;;19.50;91.90;;;;;;5061959;28;20202;-74
2024/04/02 05:31:52;;;;;;;1.77;1.23;;;19.50;91.90;;;;;;5063436;28;21279;-73
2024/04/02 05:34:19;;;;;;;1.50;1.20;;;19.50;91.90;;;;;;5060232;28;20636;-74
2024/04/02 05:36:45;;;;;;;1.20;0.95;;;19.50;91.90;;;;;;5062025;28;21294;-74
2024/04/02 05:39:12;;;;;;;1.20;1.10;;;19.50;92.00;;;;;;5063378;28;20205;-74
2024/04/02 05:41:38;;;;;;;1.00;0.80;;;19.50;92.00;;;;;;5057977;28;20267;-74
2024/04/02 05:44:06;;;;;;;1.27;1.10;;;19.50;92.00;;;;;;5059995;28;20609;-75
2024/04/02 05:46:32;;;;;;;1.20;1.00;;;19.50;92.00;;;;;;5061708;28;20193;-73
2024/04/02 05:48:59;;;;;;;1.10;1.00;;;19.50;92.10;;;;;;5064037;28;20248;-74
2024/04/02 05:51:24;;;;;;;1.45;0.90;;;19.40;92.10;;;;;;5062686;28;20634;-74
2024/04/02 05:53:51;;;;;;;1.30;1.20;;;19.40;92.10;;;;;;5064225;28;20197;-74
2024/04/02 05:56:17;;;;;;;1.00;0.80;;;19.50;92.20;;;;;;5059752;28;20201;-74
2024/04/02 05:58:43;;;;;;;2.03;1.00;;;19.40;92.20;;;;;;5065441;28;20205;-73
2024/04/02 06:01:10;;;;;;;1.30;1.13;;;19.40;92.20;;;;;;5062770;28;20221;-74
2024/04/02 06:03:37;;;;;;;1.20;1.00;;;19.40;92.20;;;;;;5062686;28;20201;-76
2024/04/02 06:06:03;;;;;;;1.10;0.90;;;19.40;92.20;;;;;;5063154;28;20202;-76
2024/04/02 06:08:30;;;;;;;1.20;1.08;;;19.40;92.30;;;;;;5066543;28;20205;-75
2024/04/02 06:10:56;;;;;;;1.90;0.90;;;19.40;92.30;;;;;;5061309;28;20201;-74
2024/04/02 06:13:23;;;;;;;1.45;0.82;;;19.40;92.30;;;;;;5060930;28;20198;-74
2024/04/02 06:15:48;;;;;;;1.10;0.80;;;19.40;92.40;;;;;;5062891;28;20201;-76
2024/04/02 06:18:16;;;;;;;1.10;0.90;;;19.40;92.30;;;;;;5061808;28;20201;-74
2024/04/02 06:20:42;;;;;;;1.52;1.05;;;19.40;92.40;;;;;;5058428;28;20261;-76
2024/04/02 06:23:09;;;;;;;1.40;0.87;;;19.40;92.40;;;;;;5061363;28;20261;-76
2024/04/02 06:25:34;;;;;;;1.33;1.10;;;19.30;92.40;;;;;;5061817;28;20217;-74
2024/04/02 06:28:01;;;;;;;1.17;0.87;;;19.30;92.40;;;;;;5061643;28;20259;-74
2024/04/02 06:30:27;;;;;;;1.10;0.90;;;19.30;92.40;;;;;;5061983;28;20205;-76
2024/04/02 06:32:54;;;;;;;1.10;1.00;;;19.30;92.40;;;;;;5060489;28;21102;-75
2024/04/02 06:35:21;;;;;;;1.50;1.10;;;19.30;92.40;;;;;;5062878;28;21002;-74
2024/04/02 06:37:47;;;;;;;1.00;0.70;;;19.30;92.50;;;;;;5061228;28;20323;-74
2024/04/02 06:40:13;;;;;;;1.30;0.80;;;19.30;92.50;;;;;;5061718;28;20800;-75
2024/04/02 06:42:40;;;;;;;1.40;1.03;;;19.30;92.60;;;;;;5059947;28;20226;-74
2024/04/02 06:45:06;;;;;;;1.35;0.95;;;19.30;92.60;;;;;;5062701;28;20217;-78
2024/04/02 06:47:32;;;;;;;1.43;1.07;;;19.40;92.70;;;;;;5061845;28;20228;-75
2024/04/02 06:49:58;;;;;;;1.33;1.00;;;19.50;92.60;;;;;;5060230;28;21459;-75
2024/04/02 06:52:26;;;;;;;1.10;0.90;;;19.50;92.50;;;;;;5050594;28;20328;-75
2024/04/02 06:54:52;;;;;;;0.90;0.70;;;19.60;92.40;;;;;;5060710;28;20258;-76
2024/04/02 06:57:18;;;;;;;0.90;0.80;;;19.70;92.30;;;;;;5061930;28;20288;-75
2024/04/02 06:59:45;;;;;;;1.05;0.80;;;19.70;92.20;;;;;;5063683;28;20917;-75
2024/04/02 07:02:11;;;;;;;1.08;0.80;;;19.70;92.10;;;;;;5061962;28;20320;-75
2024/04/02 07:04:37;;;;;;;1.23;0.82;;;19.70;92.50;;;;;;5062253;28;20209;-76
2024/04/02 07:07:04;;;;;;;1.03;0.83;;;19.80;92.10;;;;;;5055487;28;20824;-75
2024/04/02 07:09:31;;;;;;;1.60;0.90;;;19.80;92.00;;;;;;5057277;28;20204;-75
2024/04/02 07:11:58;;;;;;;1.00;0.77;;;19.80;92.00;;;;;;5060922;28;20473;-75
2024/04/02 07:14:24;;;;;;;1.20;0.95;;;19.90;92.00;;;;;;5056797;28;20282;-75
2024/04/02 07:16:53;;;;;;;1.30;1.10;;;19.90;91.90;;;;;;5058113;28;20198;-75
2024/04/02 07:19:19;;;;;;;1.40;1.13;;;19.90;91.90;;;;;;5059844;28;20536;-74
2024/04/02 07:21:45;;;;;;;1.00;0.90;;;19.90;91.90;;;;;;5062480;28;20688;-75
2024/04/02 07:24:11;;;;;;;1.23;0.77;;;19.90;91.80;;;;;;5061030;28;20209;-74
2024/04/02 07:26:39;;;;;;;1.10;0.80;;;20.00;91.70;;;;;;5058451;28;20221;-73
2024/04/02 07:29:05;;;;;;;0.95;0.70;;;20.00;91.70;;;;;;5061403;28;20504;-74
2024/04/02 07:31:31;;;;;;;1.43;0.90;;;20.00;91.50;;;;;;5062784;28;20342;-74
2024/04/02 07:33:57;;;;;;;1.02;0.90;;;20.10;91.50;;;;;;5058379;28;21090;-74
2024/04/02 07:36:24;;;;;;;1.20;0.80;;;20.10;91.40;;;;;;5061732;28;20243;-75
2024/04/02 07:38:50;;;;;;;1.10;0.80;;;20.20;91.30;;;;;;5060452;28;20209;-74
2024/04/02 07:41:16;;;;;;;1.00;0.70;;;20.20;91.20;;;;;;5055887;28;20639;-75
2024/04/02 07:43:43;;;;;;;1.15;0.82;;;20.30;91.10;;;;;;5057629;28;20215;-74
2024/04/02 07:46:10;;;;;;;1.00;0.80;;;20.40;91.00;;;;;;5055581;28;20209;-73
2024/04/02 07:48:36;;;;;;;1.13;1.00;;;20.40;90.80;;;;;;5059071;28;20206;-75
2024/04/02 07:51:08;;;;;;;1.10;0.70;;;20.40;90.70;;;;;;5059393;28;20201;-75
2024/04/02 07:53:34;;;;;;;1.10;0.98;;;20.40;90.70;;;;;;5055906;28;20217;-75
2024/04/02 07:56:01;;;;;;;1.10;0.80;;;20.50;90.60;;;;;;5058737;28;20198;-76
2024/04/02 07:58:27;;;;;;;1.00;0.80;;;20.50;90.50;;;;;;5061833;28;21276;-75
2024/04/02 08:00:55;;;;;;;1.20;0.93;;;20.50;90.50;;;;;;5060708;28;20237;-74
2024/04/02 08:03:20;;;;;;;1.00;0.70;;;20.50;90.40;;;;;;5058263;28;20788;-74
2024/04/02 08:05:55;;;;;;;1.17;0.90;;;20.50;90.30;;;;;;5060964;28;20288;-75
2024/04/02 08:08:21;;;;;;;1.05;0.85;;;20.50;90.20;;;;;;5060184;28;20273;-75
2024/04/02 08:10:48;;;;;;;1.20;0.90;;;20.60;90.10;;;;;;5058879;28;20279;-74
2024/04/02 08:13:13;;;;;;;1.00;0.90;;;20.60;90.00;;;;;;5059300;28;20204;-75
2024/04/02 08:15:40;;;;;;;1.50;0.83;;;20.60;90.00;;;;;;5060594;28;20237;-74
2024/04/02 08:18:07;;;;;;;0.93;0.70;;;20.70;89.90;;;;;;5060766;28;20914;-74
2024/04/02 08:20:34;;;;;;;1.10;0.90;;;20.70;89.60;;;;;;5057032;28;21374;-73
2024/04/02 08:23:00;;;;;;;1.10;0.80;;;20.70;89.30;;;;;;5059922;28;20860;-75
2024/04/02 08:25:27;;;;;;;0.90;0.70;;;20.80;89.20;;;;;;5061975;28;20242;-74
2024/04/02 08:27:52;;;;;;;1.00;0.75;;;20.80;89.00;;;;;;5061321;28;20658;-74
2024/04/02 08:30:19;;;;;;;1.10;0.90;;;20.80;88.80;;;;;;5061074;28;20240;-75
2024/04/02 08:32:45;;;;;;;0.90;0.70;;;20.80;88.50;;;;;;5061126;28;20642;-76
2024/04/02 08:35:13;;;;;;;1.38;0.90;;;20.90;88.60;;;;;;5056059;28;21251;-74
2024/04/02 08:37:39;;;;;;;1.00;0.70;;;20.90;88.50;;;;;;5057545;28;21191;-77
2024/04/02 08:40:09;;;;;;;1.10;0.80;;;20.90;88.50;;;;;;5055704;28;20487;-75
2024/04/02 08:42:37;;;;;;;1.00;0.70;;;20.90;88.30;;;;;;5059270;28;20217;-74
2024/04/02 08:45:06;;;;;;;1.10;0.90;;;20.90;88.20;;;;;;5056989;28;20451;-75
2024/04/02 08:47:33;;;;;;;1.10;0.80;;;20.90;88.00;;;;;;5058607;28;21548;-75
2024/04/02 08:50:01;;;;;;;1.20;0.90;;;21.00;88.00;;;;;;5056899;28;20451;-74
2024/04/02 08:52:28;;;;;;;1.00;0.80;;;21.00;87.90;;;;;;5058243;28;21271;-75
2024/04/02 08:54:55;;;;;;;0.97;0.70;;;21.00;87.80;;;;;;5050716;28;21497;-76
2024/04/02 08:57:21;;;;;;;1.07;0.90;;;21.00;87.80;;;;;;5058329;28;22066;-76
2024/04/02 08:59:49;;;;;;;1.07;0.80;;;21.00;87.70;;;;;;5061810;28;20939;-75
2024/04/02 09:02:15;;;;;;;1.10;0.80;;;21.00;87.50;;;;;;5068671;28;20492;-76
2024/04/02 09:04:42;;;;;;;1.20;0.90;;;21.00;88.90;;;;;;5063581;28;20468;-76
2024/04/02 09:07:08;;;;;;;1.40;1.10;;;21.00;88.50;;;;;;5061793;28;20455;-77
2024/04/02 09:09:36;;;;;;;1.50;0.90;;;21.00;88.70;;;;;;5061782;28;20546;-75
2024/04/02 09:12:04;;;;;;;1.40;0.93;;;21.00;88.90;;;;;;5061117;28;20194;-73
2024/04/02 09:14:33;;;;;;;1.20;1.10;;;21.10;89.20;;;;;;5062883;28;20824;-75
2024/04/02 09:20:22;;;;;;;2.83;0.90;;;21.10;89.50;;;;;;5044583;28;20495;-73
2024/04/02 09:22:48;;;;;;;2.67;0.80;;;21.10;89.60;;;;;;5059494;28;20486;-74
2024/04/02 09:25:17;;;;;;;2.90;1.00;;;21.20;89.60;;;;;;5061684;28;20458;-79
2024/04/02 09:27:43;;;;;;;1.57;0.93;;;21.20;89.60;;;;;;5063405;28;21160;-75
2024/04/02 09:30:11;;;;;;;3.10;1.00;;;21.20;89.70;;;;;;5062627;28;20542;-74
2024/04/02 09:32:38;;;;;;;1.20;0.80;;;21.30;89.60;;;;;;5071291;28;20191;-74
2024/04/02 09:35:12;;;;;;;1.00;0.70;;;21.30;89.70;;;;;;5069940;28;20480;-74
2024/04/02 09:37:41;;;;;;;1.10;0.80;;;21.30;89.50;;;;;;5071004;28;20458;-74
2024/04/02 09:40:09;;;;;;;1.07;0.70;;;21.40;89.60;;;;;;5070937;28;20453;-74
2024/04/02 09:42:39;;;;;;;1.30;0.87;;;21.40;89.20;;;;;;5069762;28;20475;-72
2024/04/02 09:45:08;;;;;;;1.07;0.70;;;21.50;89.30;;;;;;5070133;28;20593;-74
2024/04/02 09:47:35;;;;;;;1.97;0.80;;;21.50;89.20;;;;;;5070701;28;20479;-73
2024/04/02 09:50:03;;;;;;;1.00;0.80;;;21.50;89.00;;;;;;5072824;28;20525;-74
2024/04/02 09:52:30;;;;;;;1.40;0.80;;;21.60;89.00;;;;;;5073803;28;20536;-73
2024/04/02 09:54:58;;;;;;;0.93;0.73;;;21.60;88.90;;;;;;5073623;28;20601;-73
2024/04/02 09:57:25;;;;;;;1.30;0.90;;;21.60;88.90;;;;;;5072420;28;20867;-73
2024/04/02 09:59:53;;;;;;;1.20;0.80;;;21.60;88.80;;;;;;5071623;28;21164;-74
2024/04/02 10:02:22;;;;;;;1.00;0.80;;;21.60;88.80;;;;;;5072643;28;20495;-74
2024/04/02 10:04:51;;;;;;;1.10;0.80;;;21.70;88.80;;;;;;5071908;28;20450;-73
2024/04/02 10:07:20;;;;;;;1.77;1.17;;;21.70;88.50;;;;;;5070837;28;20453;-74
2024/04/02 10:09:56;;;;;;;1.20;0.90;;;21.70;88.40;;;;;;5068497;28;21217;-73
2024/04/02 10:12:26;;;;;;;1.10;0.90;;;21.80;88.20;;;;;;5070669;28;20462;-73
2024/04/02 10:14:54;;;;;;;1.23;0.80;;;21.80;88.20;;;;;;5061868;28;20932;-73
2024/04/02 10:17:20;;;;;;;1.10;0.80;;;21.80;88.00;;;;;;5065342;28;20860;-75
2024/04/02 10:19:47;;;;;;;1.30;1.00;;;21.80;87.60;;;;;;5068075;28;20456;-77
2024/04/02 10:22:29;;;;;;;1.10;0.93;;;21.80;86.60;;;;;;5069794;28;20628;-75
2024/04/02 10:25:09;;;;;;;1.67;0.90;;;21.80;85.40;;;;;;5072765;28;20452;-74
2024/04/02 10:27:36;;;;;;;2.03;0.90;;;21.80;85.10;;;;;;5067528;28;20466;-73
2024/04/02 10:30:15;;;;;;;2.07;0.90;;;21.80;84.90;;;;;;5071402;28;20451;-73
2024/04/02 10:32:41;;;;;;;1.63;1.07;;;21.90;84.70;;;;;;5066193;28;20471;-73
2024/04/02 10:35:17;;;;;;;1.00;0.80;;;21.90;84.40;;;;;;5064634;28;20460;-73
2024/04/02 10:37:42;;;;;;;1.50;0.90;;;21.90;84.90;;;;;;5071229;28;20280;-73
2024/04/02 10:40:09;;;;;;;1.10;0.80;;;21.90;83.70;;;;;;5069588;28;20455;-73
2024/04/02 10:42:35;;;;;;;2.00;1.00;;;21.90;83.10;;;;;;5068622;28;20225;-75
2024/04/02 10:45:02;;;;;;;1.73;0.90;;;21.90;82.30;;;;;;5067683;28;21109;-73
2024/04/02 10:47:29;;;;;;;2.27;1.00;;;22.00;81.90;;;;;;5069615;28;21028;-73
2024/04/02 10:49:57;;;;;;;2.60;1.10;;;22.00;82.10;;;;;;5070972;28;21717;-73
2024/04/02 10:52:22;;;;;;;1.97;0.90;;;22.00;80.90;;;;;;5071948;28;20455;-73
2024/04/02 10:54:49;;;;;;;1.57;0.90;;;22.00;80.20;;;;;;5071393;28;20968;-73
2024/04/02 10:57:16;;;;;;;2.97;1.13;;;22.00;79.40;;;;;;5067441;28;21046;-73
2024/04/02 10:59:44;;;;;;;2.13;1.13;;;22.00;78.70;;;;;;5067643;28;20453;-73
2024/04/02 11:02:19;;;;;;;1.90;1.10;;;22.00;78.40;;;;;;5063480;28;20488;-73
2024/04/02 11:04:46;;;;;;;9.47;1.30;;;22.00;77.70;;;;;;5066883;28;20458;-73
2024/04/02 11:07:13;;;;;;;3.10;1.20;;;22.00;77.40;;;;;;5064150;28;20987;-73
2024/04/02 11:09:39;;;;;;;1.87;0.90;;;22.00;76.70;;;;;;5071576;28;20948;-73
2024/04/02 11:12:07;;;;;;;2.07;1.00;;;22.00;76.50;;;;;;5068811;28;21444;-73
2024/04/02 11:14:33;;;;;;;2.50;1.20;;;22.00;76.00;;;;;;5071031;28;20479;-73
2024/04/02 11:17:00;;;;;;;3.33;1.33;;;22.00;75.80;;;;;;5064443;28;20446;-74
2024/04/02 11:19:26;;;;;;;1.60;1.00;;;22.00;75.20;;;;;;5066590;28;20455;-73
2024/04/02 11:24:57;;;;;;;1.77;1.27;;;22.00;74.80;;;;;;5064984;28;20456;-73
2024/04/02 11:25:04;;;;;;;2.47;1.07;;;22.10;74.50;;;;;;5064845;28;20194;-73
2024/04/02 11:27:31;;;;;;;1.43;0.80;;;22.10;73.90;;;;;;5056308;28;20546;-72
2024/04/02 11:29:58;;;;;;;1.70;1.00;;;22.10;73.50;;;;;;5066818;28;20451;-72
2024/04/02 11:32:25;;;;;;;2.53;1.47;;;22.10;73.20;;;;;;5066178;28;20566;-73
2024/04/02 11:34:57;;;;;;;1.50;1.00;;;22.10;72.80;;;;;;5066439;28;20945;-74
2024/04/02 11:37:25;;;;;;;4.33;1.20;;;22.10;72.40;;;;;;5060252;28;20581;-73
2024/04/02 11:39:52;;;;;;;1.63;1.07;;;22.20;73.10;;;;;;5065049;28;20490;-72
2024/04/02 11:42:20;;;;;;;2.50;1.30;;;22.20;73.10;;;;;;5064210;28;21100;-72
2024/04/02 11:44:46;;;;;;;2.03;1.20;;;22.20;73.50;;;;;;5065768;28;20463;-72
2024/04/02 11:47:13;;;;;;;1.83;1.17;;;22.20;74.40;;;;;;5061353;28;21163;-72
2024/04/02 11:49:40;;;;;;;2.47;1.33;;;22.20;73.80;;;;;;5063253;28;21190;-76
2024/04/02 11:52:07;;;;;;;1.50;0.80;;;22.20;74.00;;;;;;5056382;28;20549;-76
2024/04/02 11:54:35;;;;;;;3.93;1.23;;;22.20;74.00;;;;;;5065811;28;20456;-73
2024/04/02 12:02:27;;;;;;;1.23;0.80;;;22.30;75.00;;;;;;5049717;28;20468;-75
2024/04/02 12:04:52;;;;;;;7.13;1.50;;;22.40;75.40;;;;;;5063455;28;20479;-73
2024/04/02 12:07:19;;;;;;;2.60;1.00;;;22.40;75.50;;;;;;5065474;28;20456;-72
2024/04/02 12:09:54;;;;;;;2.40;1.57;;;22.40;75.70;;;;;;5062879;28;20605;-73
2024/04/02 12:12:19;;;;;;;1.77;1.10;;;22.50;76.00;;;;;;5064710;28;20455;-73
2024/04/02 12:14:46;;;;;;;2.40;1.00;;;22.60;76.10;;;;;;5064813;28;20455;-72
2024/04/02 12:17:12;;;;;;;2.07;1.20;;;22.60;76.10;;;;;;5064486;28;20198;-74
2024/04/02 12:19:38;;;;;;;1.47;1.20;;;22.60;76.20;;;;;;5058792;28;20459;-73
2024/04/02 12:22:04;;;;;;;3.73;1.33;;;22.60;76.30;;;;;;5061129;28;21182;-73
2024/04/02 12:24:31;;;;;;;3.70;1.10;;;22.70;76.60;;;;;;5062237;28;20471;-74
2024/04/02 12:26:58;;;;;;;1.33;0.93;;;22.60;76.60;;;;;;5059730;28;20197;-76
2024/04/02 12:29:24;;;;;;;1.67;1.10;;;22.70;76.80;;;;;;5062949;28;20474;-76
2024/04/02 12:31:50;;;;;;;1.30;0.93;;;22.70;76.70;;;;;;5064332;28;20452;-74
2024/04/02 12:34:18;;;;;;;4.33;1.00;;;22.70;76.60;;;;;;5064618;28;21047;-74
2024/04/02 12:36:44;;;;;;;2.50;0.90;;;22.70;76.50;;;;;;5062050;28;20221;-72
2024/04/02 12:39:11;;;;;;;1.13;0.77;;;22.70;76.50;;;;;;5062214;28;20487;-77
2024/04/02 12:41:37;;;;;;;2.63;1.20;;;22.70;76.60;;;;;;5064301;28;20202;-75
2024/04/02 12:44:07;;;;;;;2.43;0.90;;;22.70;76.00;;;;;;5062406;28;20470;-77
2024/04/02 12:46:33;;;;;;;4.87;1.43;;;22.70;76.10;;;;;;5060347;28;20224;-74
2024/04/02 12:49:00;;;;;;;2.60;1.00;;;22.70;76.10;;;;;;5062083;28;20448;-75
2024/04/02 12:51:26;;;;;;;3.00;1.00;;;22.70;76.30;;;;;;5059699;28;20459;-73
2024/04/02 12:53:52;;;;;;;2.40;1.10;;;22.70;76.40;;;;;;5061927;28;20448;-76
2024/04/02 12:56:18;;;;;;;3.80;1.27;;;22.80;76.20;;;;;;5061836;28;20567;-77